Neptuno — XCNEP — position and weather

sailwx.info

Track history (hours):
 
Tides and Currents Weather Stations Pressure Air Temp Water Temp Dewpoint Dewpoint Depression Visibility Wind Speed Wind Dir Waves Ship Positions

Neptuno

Last reported at 2017-Nov-18 14:54 UTC. Time now 2017-Nov-18 15:28 UTC.
Position N 19°12' W 096°08'.

Length 11 m.

Type: Pilot. MMSI: 345390000.

Date/timePositionNaut miles runAvg speedWind from/ knotsBaromVisibWave heightAir tempDewpointWater temp
2017-Nov-18 14:54N 19°12' W 096°08'3 8.3
2017-Nov-18 14:30N 19°11' W 096°04'1 2.0
2017-Nov-18 13:59N 19°12' W 096°05'2 4.7
2017-Nov-18 13:30N 19°12' W 096°08'3 6.0
2017-Nov-18 13:00N 19°12' W 096°05'1 2.5
2017-Nov-18 12:29N 19°12' W 096°06'2 4.1
2017-Nov-18 12:01N 19°12' W 096°08'1 0.9
2017-Nov-18 11:26N 19°12' W 096°08'0 0.0
2017-Nov-18 10:59N 19°12' W 096°08'0 0.0
2017-Nov-18 10:29N 19°12' W 096°08'0 0.0
2017-Nov-18 09:56N 19°12' W 096°08'0 0.0
2017-Nov-18 09:23N 19°12' W 096°08'0 0.0
2017-Nov-18 08:59N 19°12' W 096°08'0 0.0
2017-Nov-18 08:29N 19°12' W 096°08'0 0.0
2017-Nov-18 07:59N 19°12' W 096°08'0 0.0
2017-Nov-18 07:23N 19°12' W 096°08'0 0.0
2017-Nov-18 06:56N 19°12' W 096°08'0 0.0
2017-Nov-18 06:29N 19°12' W 096°08'0 0.0
2017-Nov-18 06:00N 19°12' W 096°08'2 4.7
2017-Nov-18 05:30N 19°12' W 096°05'2 3.6
2017-Nov-18 04:54N 19°12' W 096°08'0 0.7
2017-Nov-18 04:23N 19°12' W 096°08'0 0.0
2017-Nov-18 03:59N 19°12' W 096°08'0 0.0
2017-Nov-18 03:29N 19°12' W 096°08'0 0.0
2017-Nov-18 02:56N 19°12' W 096°08'0 0.0
2017-Nov-18 02:22N 19°12' W 096°08'0 0.0
2017-Nov-18 01:59N 19°12' W 096°08'0 0.0
2017-Nov-18 01:29N 19°12' W 096°08'0 0.0
2017-Nov-18 00:58N 19°12' W 096°08'0 0.0
2017-Nov-18 00:29N 19°12' W 096°08'0 0.0
2017-Nov-17 23:56N 19°12' W 096°08'0 0.0
2017-Nov-17 23:26N 19°12' W 096°08'0 0.0
2017-Nov-17 22:59N 19°12' W 096°08'0 0.0
2017-Nov-17 22:26N 19°12' W 096°08'0 0.0
2017-Nov-17 21:44N 19°12' W 096°08'0 0.0
2017-Nov-17 21:20N 19°12' W 096°08'2 4.4
2017-Nov-17 20:59N 19°12' W 096°06'1 1.7
2017-Nov-17 20:19N 19°12' W 096°07'0 0.3
2017-Nov-17 18:38N 19°12' W 096°08'0 0.0
2017-Nov-17 18:26N 19°12' W 096°08'0 0.9
2017-Nov-17 17:58N 19°12' W 096°08'0 0.9
2017-Nov-17 17:30N 19°12' W 096°08'0 0.5
2017-Nov-17 16:59N 19°12' W 096°08'1 1.4
2017-Nov-17 16:24N 19°13' W 096°08'0 0.4
2017-Nov-17 15:58N 19°13' W 096°08'3 5.5
2017-Nov-17 15:28N 19°12' W 096°05'1 1.2
2017-Nov-17 15:00N 19°12' W 096°05'3 5.7
2017-Nov-17 14:29N 19°12' W 096°08'0 0.0
2017-Nov-17 13:59N 19°12' W 096°08'0 0.0
2017-Nov-17 13:29N 19°12' W 096°08'1 1.7
2017-Nov-17 13:00N 19°12' W 096°07'1 2.1
2017-Nov-17 12:28N 19°12' W 096°06'2 5.3
2017-Nov-17 12:00N 19°13' W 096°08'1 1.6
2017-Nov-17 11:29N 19°12' W 096°08'0 0.0
2017-Nov-17 10:56N 19°12' W 096°08'0 0.0
2017-Nov-17 10:29N 19°12' W 096°08'0 0.0
2017-Nov-17 09:59N 19°12' W 096°08'0 0.0
2017-Nov-17 09:29N 19°12' W 096°08'0 0.0
2017-Nov-17 08:56N 19°12' W 096°08'0 0.0
2017-Nov-17 08:29N 19°12' W 096°08'0 0.0
2017-Nov-17 07:59N 19°12' W 096°08'0 0.0
2017-Nov-17 07:29N 19°12' W 096°08'0 0.0
2017-Nov-17 06:59N 19°12' W 096°08'0 0.0
2017-Nov-17 06:26N 19°12' W 096°08'0 0.0
2017-Nov-17 05:59N 19°12' W 096°08'0 0.0
2017-Nov-17 05:29N 19°12' W 096°08'0 0.0
2017-Nov-17 04:59N 19°12' W 096°08'0 0.0
2017-Nov-17 04:26N 19°12' W 096°08'0 0.0
2017-Nov-17 03:59N 19°12' W 096°08'0 0.0
2017-Nov-17 03:29N 19°12' W 096°08'0 0.0
2017-Nov-17 02:59N 19°12' W 096°08'0 0.0
2017-Nov-17 02:29N 19°12' W 096°08'0 0.0
2017-Nov-17 01:59N 19°12' W 096°08'0 0.0
2017-Nov-17 01:29N 19°12' W 096°08'0 0.0
2017-Nov-17 00:59N 19°12' W 096°08'0 0.0
2017-Nov-17 00:29N 19°12' W 096°08'0 0.0
2017-Nov-16 23:59N 19°12' W 096°08'0 0.0
2017-Nov-16 23:26N 19°12' W 096°08'0 0.0
2017-Nov-16 21:52N 19°12' W 096°08'0 0.0
2017-Nov-16 18:47N 19°12' W 096°08'0 0.0
2017-Nov-16 18:27N 19°12' W 096°08'2 5.0
2017-Nov-16 18:00N 19°12' W 096°05'2 4.4
2017-Nov-16 17:30N 19°12' W 096°08'0 0.1
2017-Nov-16 16:58N 19°12' W 096°08'0 0.0
2017-Nov-16 16:29N 19°12' W 096°08'4 7.4
2017-Nov-16 15:59N 19°11' W 096°04'2 3.7
2017-Nov-16 15:30N 19°12' W 096°06'2 3.0
2017-Nov-16 14:48N 19°12' W 096°08'0 0.8
2017-Nov-16 14:30N 19°12' W 096°08'0 0.0
2017-Nov-16 14:00N 19°12' W 096°08'0 0.0
2017-Nov-16 13:30N 19°12' W 096°08'0 0.0
2017-Nov-16 13:00N 19°12' W 096°08'0 0.0
2017-Nov-16 12:30N 19°12' W 096°08'0 0.0
2017-Nov-16 12:01N 19°12' W 096°08'0 0.0
2017-Nov-16 11:27N 19°12' W 096°08'0 0.0
2017-Nov-16 11:00N 19°12' W 096°08'0 0.0
2017-Nov-16 10:30N 19°12' W 096°08'0 0.0
2017-Nov-16 10:00N 19°12' W 096°08'0 0.0
2017-Nov-16 09:31N 19°12' W 096°08'0 0.0
2017-Nov-16 09:00N 19°12' W 096°08'0 0.0
2017-Nov-16 08:30N 19°12' W 096°08'0 0.0
2017-Nov-16 08:01N 19°12' W 096°08'0 0.0
2017-Nov-16 07:30N 19°12' W 096°08'0 0.0
2017-Nov-16 07:00N 19°12' W 096°08'0 0.0
2017-Nov-16 06:30N 19°12' W 096°08'1 2.3
2017-Nov-16 05:59N 19°12' W 096°06'0 0.7
2017-Nov-16 05:30N 19°12' W 096°06'2 3.0
2017-Nov-16 04:58N 19°12' W 096°08'0 0.0
2017-Nov-16 04:28N 19°12' W 096°08'0 0.0
2017-Nov-16 03:58N 19°12' W 096°08'0 0.0
2017-Nov-16 03:28N 19°12' W 096°08'0 0.0
2017-Nov-16 02:58N 19°12' W 096°08'0 0.0
2017-Nov-16 02:28N 19°12' W 096°08'0 0.0
2017-Nov-16 01:49N 19°12' W 096°08'0 0.0
2017-Nov-16 01:28N 19°12' W 096°08'0 0.0
2017-Nov-16 00:58N 19°12' W 096°08'0 0.0
2017-Nov-16 00:22N 19°12' W 096°08'0 0.0
2017-Nov-15 23:52N 19°12' W 096°08'0 0.0
2017-Nov-15 23:28N 19°12' W 096°08'0 0.0
2017-Nov-15 15:16N 19°12' W 096°08'0 0.0
2017-Nov-15 14:10N 19°12' W 096°08'0 0.0
2017-Nov-15 13:52N 19°12' W 096°08'0 0.0
2017-Nov-15 13:28N 19°12' W 096°08'0 0.0
2017-Nov-15 12:58N 19°12' W 096°08'0 1.0
2017-Nov-15 12:30N 19°12' W 096°07'0 0.1
2017-Nov-15 12:00N 19°12' W 096°08'3 6.5
2017-Nov-15 11:29N 19°11' W 096°04'4 6.0
2017-Nov-15 10:54N 19°12' W 096°08'0 0.0
2017-Nov-15 10:30N 19°12' W 096°08'0 0.0
2017-Nov-15 10:00N 19°12' W 096°08'0 0.0
2017-Nov-15 09:27N 19°12' W 096°08'0 0.0
2017-Nov-15 09:00N 19°12' W 096°08'0 0.0
2017-Nov-15 08:30N 19°12' W 096°08'0 0.0
2017-Nov-15 08:00N 19°12' W 096°08'0 0.0
2017-Nov-15 07:30N 19°12' W 096°08'0 0.0
2017-Nov-15 07:00N 19°12' W 096°08'0 0.0
2017-Nov-15 06:30N 19°12' W 096°08'0 0.0
2017-Nov-15 06:00N 19°12' W 096°08'0 0.0
2017-Nov-15 05:30N 19°12' W 096°08'1 1.8
2017-Nov-15 05:00N 19°13' W 096°08'1 1.6
2017-Nov-15 04:28N 19°12' W 096°08'3 6.3
2017-Nov-15 03:55N 19°12' W 096°04'3 7.4
2017-Nov-15 03:27N 19°12' W 096°08'0 0.0
2017-Nov-15 03:00N 19°12' W 096°08'0 0.0
2017-Nov-15 02:30N 19°12' W 096°08'0 0.0
2017-Nov-15 02:00N 19°12' W 096°08'0 0.0
2017-Nov-15 01:30N 19°12' W 096°08'0 0.0
2017-Nov-15 01:00N 19°12' W 096°08'0 0.0
2017-Nov-15 00:30N 19°12' W 096°08'0 0.0
2017-Nov-15 00:00N 19°12' W 096°08'0 0.0
2017-Nov-14 23:30N 19°12' W 096°08'0 0.0
2017-Nov-14 23:00N 19°12' W 096°08'0 0.0
2017-Nov-14 22:30N 19°12' W 096°08'0 0.0
2017-Nov-14 22:00N 19°12' W 096°08'0 0.0
2017-Nov-14 21:30N 19°12' W 096°08'0 0.0
2017-Nov-14 21:00N 19°12' W 096°08'0 0.0
2017-Nov-14 20:30N 19°12' W 096°08'0 0.0
2017-Nov-14 20:00N 19°12' W 096°08'0 0.0
2017-Nov-14 19:30N 19°12' W 096°08'0 0.0
2017-Nov-14 19:00N 19°12' W 096°08'0 0.0
2017-Nov-14 18:24N 19°12' W 096°08'0 0.0
2017-Nov-14 17:57N 19°12' W 096°08'0 0.0
2017-Nov-14 17:30N 19°12' W 096°08'1 2.8
2017-Nov-14 17:00N 19°12' W 096°06'1 1.8
2017-Nov-14 16:30N 19°12' W 096°05'3 5.0
2017-Nov-14 16:00N 19°13' W 096°08'1 1.4
2017-Nov-14 15:30N 19°12' W 096°08'0 0.0
2017-Nov-14 14:55N 19°12' W 096°08'0 0.0
2017-Nov-14 14:25N 19°12' W 096°08'0 0.0
2017-Nov-14 13:58N 19°12' W 096°08'0 0.0
2017-Nov-14 13:28N 19°12' W 096°08'0 0.0
2017-Nov-14 12:55N 19°12' W 096°08'0 0.0
2017-Nov-14 12:28N 19°12' W 096°08'0 0.0
2017-Nov-14 11:43N 19°12' W 096°08'0 0.0
2017-Nov-14 11:25N 19°12' W 096°08'0 0.0
2017-Nov-14 10:58N 19°12' W 096°08'0 0.0
2017-Nov-14 10:28N 19°12' W 096°08'0 0.0
2017-Nov-14 09:58N 19°12' W 096°08'0 0.0
2017-Nov-14 09:28N 19°12' W 096°08'0 0.0
2017-Nov-14 08:58N 19°12' W 096°08'0 0.0
2017-Nov-14 08:25N 19°12' W 096°08'0 0.0
2017-Nov-14 07:58N 19°12' W 096°08'0 0.0
2017-Nov-14 07:28N 19°12' W 096°08'0 0.0
2017-Nov-14 06:58N 19°12' W 096°08'0 0.0
2017-Nov-14 06:25N 19°12' W 096°08'0 0.0
2017-Nov-14 05:55N 19°12' W 096°08'2 5.1
2017-Nov-14 05:30N 19°12' W 096°06'2 2.9
2017-Nov-14 04:57N 19°12' W 096°07'1 2.5
2017-Nov-14 04:30N 19°13' W 096°08'1 1.4
2017-Nov-14 03:53N 19°12' W 096°08'0 0.0
2017-Nov-14 03:29N 19°12' W 096°08'0 0.0
2017-Nov-14 02:54N 19°12' W 096°08'0 0.0
2017-Nov-14 02:30N 19°12' W 096°08'0 0.0
2017-Nov-14 01:57N 19°12' W 096°08'0 0.0
2017-Nov-14 01:30N 19°12' W 096°08'1 1.4
2017-Nov-14 00:57N 19°13' W 096°08'1 1.7
2017-Nov-14 00:30N 19°12' W 096°08'4 6.3
2017-Nov-13 23:55N 19°12' W 096°04'4 7.8
2017-Nov-13 23:27N 19°12' W 096°08'0 0.0
2017-Nov-13 22:57N 19°12' W 096°08'0 0.0
2017-Nov-13 01:59N 19°12' W 096°08'0 0.0
2017-Nov-13 01:29N 19°12' W 096°08'1 1.7
2017-Nov-13 00:59N 19°13' W 096°08'0 0.3
2017-Nov-13 00:30N 19°13' W 096°08'3 6.7
2017-Nov-12 23:59N 19°12' W 096°05'3 5.7
2017-Nov-12 23:29N 19°12' W 096°08'0 0.0
2017-Nov-12 22:59N 19°12' W 096°08'0 0.0
2017-Nov-12 22:26N 19°12' W 096°08'0 0.0
2017-Nov-12 21:56N 19°12' W 096°08'0 0.0
2017-Nov-12 21:23N 19°12' W 096°08'0 0.0
2017-Nov-12 20:56N 19°12' W 096°08'0 0.0
2017-Nov-12 20:29N 19°12' W 096°08'2 4.7
2017-Nov-12 20:00N 19°12' W 096°05'0 0.9
2017-Nov-12 19:30N 19°12' W 096°05'3 5.9
2017-Nov-12 19:00N 19°12' W 096°08'1 1.1
2017-Nov-12 18:30N 19°12' W 096°08'0 0.0
2017-Nov-12 18:00N 19°12' W 096°08'0 0.0
2017-Nov-12 17:30N 19°12' W 096°08'0 0.0
2017-Nov-12 17:00N 19°12' W 096°08'0 0.0
2017-Nov-12 16:30N 19°12' W 096°08'0 0.0
2017-Nov-12 16:00N 19°12' W 096°08'0 0.0
2017-Nov-12 15:30N 19°12' W 096°08'0 0.0
2017-Nov-12 15:00N 19°12' W 096°08'0 0.0
2017-Nov-12 14:30N 19°12' W 096°08'0 0.0
2017-Nov-12 14:00N 19°12' W 096°08'0 0.0
2017-Nov-12 13:30N 19°12' W 096°08'0 0.0
2017-Nov-12 13:00N 19°12' W 096°08'0 0.0
2017-Nov-12 12:30N 19°12' W 096°08'0 0.0
2017-Nov-12 12:00N 19°12' W 096°08'0 0.0
2017-Nov-12 11:27N 19°12' W 096°08'0 0.0
2017-Nov-12 11:00N 19°12' W 096°08'0 0.0
2017-Nov-12 10:30N 19°12' W 096°08'0 0.0
2017-Nov-12 10:00N 19°12' W 096°08'0 0.0
2017-Nov-12 09:30N 19°12' W 096°08'0 0.0
2017-Nov-12 09:00N 19°12' W 096°08'0 0.0
2017-Nov-12 08:30N 19°12' W 096°08'0 0.0
2017-Nov-12 08:00N 19°12' W 096°08'0 0.0
2017-Nov-12 07:27N 19°12' W 096°08'0 0.0
2017-Nov-12 07:00N 19°12' W 096°08'0 0.0
2017-Nov-12 06:30N 19°12' W 096°08'0 0.0
2017-Nov-12 06:00N 19°12' W 096°08'0 0.0
2017-Nov-12 05:30N 19°12' W 096°08'0 0.0
2017-Nov-12 05:00N 19°12' W 096°08'0 0.0
2017-Nov-12 04:27N 19°12' W 096°08'0 0.0
2017-Nov-12 04:00N 19°12' W 096°08'0 0.0
2017-Nov-12 03:30N 19°12' W 096°08'0 0.0
2017-Nov-12 03:00N 19°12' W 096°08'0 0.0
2017-Nov-12 02:30N 19°12' W 096°08'0 0.0
2017-Nov-12 01:57N 19°12' W 096°08'0 0.0
2017-Nov-12 01:30N 19°12' W 096°08'0 0.0
2017-Nov-12 00:57N 19°12' W 096°08'3 5.4
2017-Nov-12 00:30N 19°12' W 096°05'1 2.3
2017-Nov-12 00:00N 19°12' W 096°06'1 2.3
2017-Nov-11 23:23N 19°12' W 096°08'0 0.3
2017-Nov-11 22:57N 19°12' W 096°08'0 0.0
2017-Nov-11 22:27N 19°12' W 096°08'0 0.0
2017-Nov-11 19:27N 19°12' W 096°08'0 0.0
2017-Nov-11 18:57N 19°12' W 096°08'0 0.0
2017-Nov-11 18:30N 19°12' W 096°08'2 4.2
2017-Nov-11 17:58N 19°12' W 096°05'2 2.5
2017-Nov-11 17:05N 19°12' W 096°08'0 0.5
2017-Nov-11 16:47N 19°12' W 096°08'0 0.6
2017-Nov-11 16:21N 19°12' W 096°08'0 0.0
2017-Nov-11 16:00N 19°12' W 096°08'0 0.5
2017-Nov-11 15:25N 19°12' W 096°08'0 0.7
2017-Nov-11 14:58N 19°12' W 096°08'0 0.0
2017-Nov-11 14:28N 19°12' W 096°08'0 0.0
2017-Nov-11 13:58N 19°12' W 096°08'0 0.0
2017-Nov-11 13:28N 19°12' W 096°08'0 0.0
2017-Nov-11 12:55N 19°12' W 096°08'0 0.0
2017-Nov-11 12:28N 19°12' W 096°08'2 4.5
2017-Nov-11 11:59N 19°12' W 096°05'1 1.0
2017-Nov-11 11:28N 19°12' W 096°05'3 4.6
2017-Nov-11 10:53N 19°12' W 096°08'0 0.0
2017-Nov-11 10:20N 19°12' W 096°08'0 0.0
2017-Nov-11 09:56N 19°12' W 096°08'0 0.0
2017-Nov-11 09:29N 19°12' W 096°08'0 0.0
2017-Nov-11 08:59N 19°12' W 096°08'0 0.0
2017-Nov-11 08:29N 19°12' W 096°08'0 0.0
2017-Nov-11 07:59N 19°12' W 096°08'0 0.0
2017-Nov-11 07:29N 19°12' W 096°08'0 0.0
2017-Nov-11 06:59N 19°12' W 096°08'0 0.0
2017-Nov-11 06:29N 19°12' W 096°08'0 0.0
2017-Nov-11 05:59N 19°12' W 096°08'0 0.0
2017-Nov-11 05:29N 19°12' W 096°08'0 0.0
2017-Nov-11 04:59N 19°12' W 096°08'0 0.0
2017-Nov-11 04:29N 19°12' W 096°08'0 0.0
2017-Nov-11 03:59N 19°12' W 096°08'0 0.0
2017-Nov-11 03:29N 19°12' W 096°08'0 0.0
2017-Nov-11 02:56N 19°12' W 096°08'0 0.0
2017-Nov-11 02:29N 19°12' W 096°08'1 2.6
2017-Nov-11 02:00N 19°12' W 096°06'2 3.8
2017-Nov-11 01:30N 19°12' W 096°04'3 6.0
2017-Nov-11 00:59N 19°12' W 096°08'0 0.2
2017-Nov-11 00:27N 19°12' W 096°08'0 0.0
2017-Nov-11 00:00N 19°12' W 096°08'0 0.0
2017-Nov-10 23:27N 19°12' W 096°08'0 0.0
2017-Nov-10 22:57N 19°12' W 096°08'0 0.0
2017-Nov-10 22:27N 19°12' W 096°08'0 0.0
2017-Nov-10 21:57N 19°12' W 096°08'0 0.0
2017-Nov-10 21:27N 19°12' W 096°08'0 0.0
2017-Nov-10 20:57N 19°12' W 096°08'0 0.0
2017-Nov-10 20:30N 19°12' W 096°08'2 4.7
2017-Nov-10 20:00N 19°12' W 096°05'0 0.1
2017-Nov-10 19:30N 19°12' W 096°05'2 4.6
2017-Nov-10 18:59N 19°12' W 096°08'2 4.5
2017-Nov-10 18:30N 19°12' W 096°06'0 0.9
2017-Nov-10 17:57N 19°12' W 096°05'3 3.9
2017-Nov-10 17:17N 19°12' W 096°08'0 0.2
2017-Nov-10 16:50N 19°12' W 096°08'0 0.0
2017-Nov-10 16:02N 19°12' W 096°08'0 0.0
2017-Nov-10 15:50N 19°12' W 096°08'0 0.0
2017-Nov-10 15:26N 19°12' W 096°08'0 0.0
2017-Nov-10 14:50N 19°12' W 096°08'0 0.0
2017-Nov-10 14:29N 19°12' W 096°08'0 0.0
2017-Nov-10 13:59N 19°12' W 096°08'0 0.0
2017-Nov-10 13:29N 19°12' W 096°08'0 0.0
2017-Nov-10 12:59N 19°12' W 096°08'0 0.0
2017-Nov-10 12:29N 19°12' W 096°08'0 0.0
2017-Nov-10 11:56N 19°12' W 096°08'0 0.0
2017-Nov-10 11:29N 19°12' W 096°08'0 0.0
2017-Nov-10 10:59N 19°12' W 096°08'0 0.0
2017-Nov-10 10:23N 19°12' W 096°08'0 0.0
2017-Nov-10 09:59N 19°12' W 096°08'0 0.0
2017-Nov-10 09:26N 19°12' W 096°08'0 0.0
2017-Nov-10 08:56N 19°12' W 096°08'0 0.0
2017-Nov-10 08:29N 19°12' W 096°08'0 0.0
2017-Nov-10 07:59N 19°12' W 096°08'0 0.0
2017-Nov-10 07:26N 19°12' W 096°08'0 0.0
2017-Nov-10 06:59N 19°12' W 096°08'0 0.0
2017-Nov-10 06:29N 19°12' W 096°08'0 0.0
2017-Nov-10 05:56N 19°12' W 096°08'0 0.0
2017-Nov-10 05:29N 19°12' W 096°08'0 0.0
2017-Nov-10 04:50N 19°12' W 096°08'0 0.0
2017-Nov-10 04:29N 19°12' W 096°08'0 0.0
2017-Nov-10 03:59N 19°12' W 096°08'0 0.0
2017-Nov-10 03:29N 19°12' W 096°08'0 0.0
2017-Nov-10 02:59N 19°12' W 096°08'0 0.0
2017-Nov-10 02:29N 19°12' W 096°08'0 0.0
2017-Nov-10 01:50N 19°12' W 096°08'0 0.0
2017-Nov-10 01:26N 19°12' W 096°08'0 0.0
2017-Nov-10 00:59N 19°12' W 096°08'0 0.0
2017-Nov-10 00:29N 19°12' W 096°08'0 0.0
2017-Nov-09 23:59N 19°12' W 096°08'0 0.0
2017-Nov-09 23:29N 19°12' W 096°08'0 0.0
2017-Nov-09 22:56N 19°12' W 096°08'0 0.0
2017-Nov-09 22:29N 19°12' W 096°08'0 0.0
2017-Nov-09 21:59N 19°12' W 096°08'0 0.0
2017-Nov-09 21:29N 19°12' W 096°08'0 0.0
2017-Nov-09 20:59N 19°12' W 096°08'0 0.0
2017-Nov-09 20:29N 19°12' W 096°08'1 1.6
2017-Nov-09 19:59N 19°13' W 096°08'1 1.5
2017-Nov-09 19:30N 19°12' W 096°08'2 3.9
2017-Nov-09 18:53N 19°12' W 096°05'3 6.5
2017-Nov-09 18:29N 19°12' W 096°08'0 0.0
2017-Nov-09 17:59N 19°12' W 096°08'0 0.0
2017-Nov-09 17:29N 19°12' W 096°08'0 0.0
2017-Nov-09 16:59N 19°12' W 096°08'0 0.0
2017-Nov-09 16:29N 19°12' W 096°08'0 0.0
2017-Nov-09 15:59N 19°12' W 096°08'3 6.2
2017-Nov-09 15:29N 19°12' W 096°04'2 3.9
2017-Nov-09 15:00N 19°12' W 096°06'1 2.3
2017-Nov-09 14:25N 19°12' W 096°08'0 0.4
2017-Nov-09 13:59N 19°12' W 096°08'0 0.0
2017-Nov-09 13:29N 19°12' W 096°08'0 0.0
2017-Nov-09 12:59N 19°12' W 096°08'0 0.0
2017-Nov-09 12:26N 19°12' W 096°08'0 0.0
2017-Nov-09 11:59N 19°12' W 096°08'0 0.0
2017-Nov-09 11:29N 19°12' W 096°08'0 0.0
2017-Nov-09 10:59N 19°12' W 096°08'0 0.0
2017-Nov-09 10:29N 19°12' W 096°08'0 0.0
2017-Nov-09 09:59N 19°12' W 096°08'0 0.0
2017-Nov-09 09:29N 19°12' W 096°08'0 0.0
2017-Nov-09 08:59N 19°12' W 096°08'0 0.0
2017-Nov-09 08:26N 19°12' W 096°08'0 0.0
2017-Nov-09 07:59N 19°12' W 096°08'0 0.0
2017-Nov-09 07:29N 19°12' W 096°08'0 0.0
2017-Nov-09 06:59N 19°12' W 096°08'0 0.0
2017-Nov-09 06:29N 19°12' W 096°08'0 0.0
2017-Nov-09 05:53N 19°12' W 096°08'0 0.0
2017-Nov-09 05:29N 19°12' W 096°08'0 0.0
2017-Nov-09 04:59N 19°12' W 096°08'0 0.0
2017-Nov-09 04:29N 19°12' W 096°08'0 0.0
2017-Nov-09 03:59N 19°12' W 096°08'0 0.0
2017-Nov-09 03:29N 19°12' W 096°08'0 0.0
2017-Nov-09 02:59N 19°12' W 096°08'0 0.0
2017-Nov-09 02:29N 19°12' W 096°08'1 1.6
2017-Nov-09 01:57N 19°13' W 096°08'1 1.9
2017-Nov-09 01:30N 19°12' W 096°08'4 6.8
2017-Nov-09 00:58N 19°11' W 096°04'3 6.7
2017-Nov-09 00:30N 19°12' W 096°07'1 1.1
2017-Nov-09 00:00N 19°12' W 096°08'1 0.6
2017-Nov-08 22:51N 19°12' W 096°07'1 1.4
2017-Nov-08 22:14N 19°12' W 096°08'0 0.0
2017-Nov-08 21:56N 19°12' W 096°08'0 0.0
2017-Nov-08 21:26N 19°12' W 096°08'0 0.0
2017-Nov-08 20:50N 19°12' W 096°08'0 0.0
2017-Nov-08 20:26N 19°12' W 096°08'0 0.0
2017-Nov-08 17:38N 19°12' W 096°08'0 0.1
2017-Nov-08 17:26N 19°12' W 096°08'0 0.0
2017-Nov-08 16:56N 19°12' W 096°08'0 0.0
2017-Nov-08 16:29N 19°12' W 096°08'1 1.5
2017-Nov-08 16:00N 19°13' W 096°08'1 1.5
2017-Nov-08 15:30N 19°12' W 096°08'4 7.4
2017-Nov-08 15:00N 19°11' W 096°04'  
Track history (hours):
 
Tides and Currents Weather Stations Pressure Air Temp Water Temp Dewpoint Dewpoint Depression Visibility Wind Speed Wind Dir Waves Ship Positions

Neptuno

Last reported at 2017-Nov-18 14:54 UTC. Time now 2017-Nov-18 15:28 UTC.
Position N 19°12' W 096°08'.

Length 11 m.

Type: Pilot. MMSI: 345390000.

Date/timePositionNaut miles runAvg speedWind from/ knotsBaromVisibWave heightAir tempDewpointWater temp
2017-Nov-18 14:54N 19°12' W 096°08'3 8.3
2017-Nov-18 14:30N 19°11' W 096°04'1 2.0
2017-Nov-18 13:59N 19°12' W 096°05'2 4.7
2017-Nov-18 13:30N 19°12' W 096°08'3 6.0
2017-Nov-18 13:00N 19°12' W 096°05'1 2.5
2017-Nov-18 12:29N 19°12' W 096°06'2 4.1
2017-Nov-18 12:01N 19°12' W 096°08'1 0.9
2017-Nov-18 11:26N 19°12' W 096°08'0 0.0
2017-Nov-18 10:59N 19°12' W 096°08'0 0.0
2017-Nov-18 10:29N 19°12' W 096°08'0 0.0
2017-Nov-18 09:56N 19°12' W 096°08'0 0.0
2017-Nov-18 09:23N 19°12' W 096°08'0 0.0
2017-Nov-18 08:59N 19°12' W 096°08'0 0.0
2017-Nov-18 08:29N 19°12' W 096°08'0 0.0
2017-Nov-18 07:59N 19°12' W 096°08'0 0.0
2017-Nov-18 07:23N 19°12' W 096°08'0 0.0
2017-Nov-18 06:56N 19°12' W 096°08'0 0.0
2017-Nov-18 06:29N 19°12' W 096°08'0 0.0
2017-Nov-18 06:00N 19°12' W 096°08'2 4.7
2017-Nov-18 05:30N 19°12' W 096°05'2 3.6
2017-Nov-18 04:54N 19°12' W 096°08'0 0.7
2017-Nov-18 04:23N 19°12' W 096°08'0 0.0
2017-Nov-18 03:59N 19°12' W 096°08'0 0.0
2017-Nov-18 03:29N 19°12' W 096°08'0 0.0
2017-Nov-18 02:56N 19°12' W 096°08'0 0.0
2017-Nov-18 02:22N 19°12' W 096°08'0 0.0
2017-Nov-18 01:59N 19°12' W 096°08'0 0.0
2017-Nov-18 01:29N 19°12' W 096°08'0 0.0
2017-Nov-18 00:58N 19°12' W 096°08'0 0.0
2017-Nov-18 00:29N 19°12' W 096°08'0 0.0
2017-Nov-17 23:56N 19°12' W 096°08'0 0.0
2017-Nov-17 23:26N 19°12' W 096°08'0 0.0
2017-Nov-17 22:59N 19°12' W 096°08'0 0.0
2017-Nov-17 22:26N 19°12' W 096°08'0 0.0
2017-Nov-17 21:44N 19°12' W 096°08'0 0.0
2017-Nov-17 21:20N 19°12' W 096°08'2 4.4
2017-Nov-17 20:59N 19°12' W 096°06'1 1.7
2017-Nov-17 20:19N 19°12' W 096°07'0 0.3
2017-Nov-17 18:38N 19°12' W 096°08'0 0.0
2017-Nov-17 18:26N 19°12' W 096°08'0 0.9
2017-Nov-17 17:58N 19°12' W 096°08'0 0.9
2017-Nov-17 17:30N 19°12' W 096°08'0 0.5
2017-Nov-17 16:59N 19°12' W 096°08'1 1.4
2017-Nov-17 16:24N 19°13' W 096°08'0 0.4
2017-Nov-17 15:58N 19°13' W 096°08'3 5.5
2017-Nov-17 15:28N 19°12' W 096°05'1 1.2
2017-Nov-17 15:00N 19°12' W 096°05'3 5.7
2017-Nov-17 14:29N 19°12' W 096°08'0 0.0
2017-Nov-17 13:59N 19°12' W 096°08'0 0.0
2017-Nov-17 13:29N 19°12' W 096°08'1 1.7
2017-Nov-17 13:00N 19°12' W 096°07'1 2.1
2017-Nov-17 12:28N 19°12' W 096°06'2 5.3
2017-Nov-17 12:00N 19°13' W 096°08'1 1.6
2017-Nov-17 11:29N 19°12' W 096°08'0 0.0
2017-Nov-17 10:56N 19°12' W 096°08'0 0.0
2017-Nov-17 10:29N 19°12' W 096°08'0 0.0
2017-Nov-17 09:59N 19°12' W 096°08'0 0.0
2017-Nov-17 09:29N 19°12' W 096°08'0 0.0
2017-Nov-17 08:56N 19°12' W 096°08'0 0.0
2017-Nov-17 08:29N 19°12' W 096°08'0 0.0
2017-Nov-17 07:59N 19°12' W 096°08'0 0.0
2017-Nov-17 07:29N 19°12' W 096°08'0 0.0
2017-Nov-17 06:59N 19°12' W 096°08'0 0.0
2017-Nov-17 06:26N 19°12' W 096°08'0 0.0
2017-Nov-17 05:59N 19°12' W 096°08'0 0.0
2017-Nov-17 05:29N 19°12' W 096°08'0 0.0
2017-Nov-17 04:59N 19°12' W 096°08'0 0.0
2017-Nov-17 04:26N 19°12' W 096°08'0 0.0
2017-Nov-17 03:59N 19°12' W 096°08'0 0.0
2017-Nov-17 03:29N 19°12' W 096°08'0 0.0
2017-Nov-17 02:59N 19°12' W 096°08'0 0.0
2017-Nov-17 02:29N 19°12' W 096°08'0 0.0
2017-Nov-17 01:59N 19°12' W 096°08'0 0.0
2017-Nov-17 01:29N 19°12' W 096°08'0 0.0
2017-Nov-17 00:59N 19°12' W 096°08'0 0.0
2017-Nov-17 00:29N 19°12' W 096°08'0 0.0
2017-Nov-16 23:59N 19°12' W 096°08'0 0.0
2017-Nov-16 23:26N 19°12' W 096°08'0 0.0
2017-Nov-16 21:52N 19°12' W 096°08'0 0.0
2017-Nov-16 18:47N 19°12' W 096°08'0 0.0
2017-Nov-16 18:27N 19°12' W 096°08'2 5.0
2017-Nov-16 18:00N 19°12' W 096°05'2 4.4
2017-Nov-16 17:30N 19°12' W 096°08'0 0.1
2017-Nov-16 16:58N 19°12' W 096°08'0 0.0
2017-Nov-16 16:29N 19°12' W 096°08'4 7.4
2017-Nov-16 15:59N 19°11' W 096°04'2 3.7
2017-Nov-16 15:30N 19°12' W 096°06'2 3.0
2017-Nov-16 14:48N 19°12' W 096°08'0 0.8
2017-Nov-16 14:30N 19°12' W 096°08'0 0.0
2017-Nov-16 14:00N 19°12' W 096°08'0 0.0
2017-Nov-16 13:30N 19°12' W 096°08'0 0.0
2017-Nov-16 13:00N 19°12' W 096°08'0 0.0
2017-Nov-16 12:30N 19°12' W 096°08'0 0.0
2017-Nov-16 12:01N 19°12' W 096°08'0 0.0
2017-Nov-16 11:27N 19°12' W 096°08'0 0.0
2017-Nov-16 11:00N 19°12' W 096°08'0 0.0
2017-Nov-16 10:30N 19°12' W 096°08'0 0.0
2017-Nov-16 10:00N 19°12' W 096°08'0 0.0
2017-Nov-16 09:31N 19°12' W 096°08'0 0.0
2017-Nov-16 09:00N 19°12' W 096°08'0 0.0
2017-Nov-16 08:30N 19°12' W 096°08'0 0.0
2017-Nov-16 08:01N 19°12' W 096°08'0 0.0
2017-Nov-16 07:30N 19°12' W 096°08'0 0.0
2017-Nov-16 07:00N 19°12' W 096°08'0 0.0
2017-Nov-16 06:30N 19°12' W 096°08'1 2.3
2017-Nov-16 05:59N 19°12' W 096°06'0 0.7
2017-Nov-16 05:30N 19°12' W 096°06'2 3.0
2017-Nov-16 04:58N 19°12' W 096°08'0 0.0
2017-Nov-16 04:28N 19°12' W 096°08'0 0.0
2017-Nov-16 03:58N 19°12' W 096°08'0 0.0
2017-Nov-16 03:28N 19°12' W 096°08'0 0.0
2017-Nov-16 02:58N 19°12' W 096°08'0 0.0
2017-Nov-16 02:28N 19°12' W 096°08'0 0.0
2017-Nov-16 01:49N 19°12' W 096°08'0 0.0
2017-Nov-16 01:28N 19°12' W 096°08'0 0.0
2017-Nov-16 00:58N 19°12' W 096°08'0 0.0
2017-Nov-16 00:22N 19°12' W 096°08'0 0.0
2017-Nov-15 23:52N 19°12' W 096°08'0 0.0
2017-Nov-15 23:28N 19°12' W 096°08'0 0.0
2017-Nov-15 15:16N 19°12' W 096°08'0 0.0
2017-Nov-15 14:10N 19°12' W 096°08'0 0.0
2017-Nov-15 13:52N 19°12' W 096°08'0 0.0
2017-Nov-15 13:28N 19°12' W 096°08'0 0.0
2017-Nov-15 12:58N 19°12' W 096°08'0 1.0
2017-Nov-15 12:30N 19°12' W 096°07'0 0.1
2017-Nov-15 12:00N 19°12' W 096°08'3 6.5
2017-Nov-15 11:29N 19°11' W 096°04'4 6.0
2017-Nov-15 10:54N 19°12' W 096°08'0 0.0
2017-Nov-15 10:30N 19°12' W 096°08'0 0.0
2017-Nov-15 10:00N 19°12' W 096°08'0 0.0
2017-Nov-15 09:27N 19°12' W 096°08'0 0.0
2017-Nov-15 09:00N 19°12' W 096°08'0 0.0
2017-Nov-15 08:30N 19°12' W 096°08'0 0.0
2017-Nov-15 08:00N 19°12' W 096°08'0 0.0
2017-Nov-15 07:30N 19°12' W 096°08'0 0.0
2017-Nov-15 07:00N 19°12' W 096°08'0 0.0
2017-Nov-15 06:30N 19°12' W 096°08'0 0.0
2017-Nov-15 06:00N 19°12' W 096°08'0 0.0
2017-Nov-15 05:30N 19°12' W 096°08'1 1.8
2017-Nov-15 05:00N 19°13' W 096°08'1 1.6
2017-Nov-15 04:28N 19°12' W 096°08'3 6.3
2017-Nov-15 03:55N 19°12' W 096°04'3 7.4
2017-Nov-15 03:27N 19°12' W 096°08'0 0.0
2017-Nov-15 03:00N 19°12' W 096°08'0 0.0
2017-Nov-15 02:30N 19°12' W 096°08'0 0.0
2017-Nov-15 02:00N 19°12' W 096°08'0 0.0
2017-Nov-15 01:30N 19°12' W 096°08'0 0.0
2017-Nov-15 01:00N 19°12' W 096°08'0 0.0
2017-Nov-15 00:30N 19°12' W 096°08'0 0.0
2017-Nov-15 00:00N 19°12' W 096°08'0 0.0
2017-Nov-14 23:30N 19°12' W 096°08'0 0.0
2017-Nov-14 23:00N 19°12' W 096°08'0 0.0
2017-Nov-14 22:30N 19°12' W 096°08'0 0.0
2017-Nov-14 22:00N 19°12' W 096°08'0 0.0
2017-Nov-14 21:30N 19°12' W 096°08'0 0.0
2017-Nov-14 21:00N 19°12' W 096°08'0 0.0
2017-Nov-14 20:30N 19°12' W 096°08'0 0.0
2017-Nov-14 20:00N 19°12' W 096°08'0 0.0
2017-Nov-14 19:30N 19°12' W 096°08'0 0.0
2017-Nov-14 19:00N 19°12' W 096°08'0 0.0
2017-Nov-14 18:24N 19°12' W 096°08'0 0.0
2017-Nov-14 17:57N 19°12' W 096°08'0 0.0
2017-Nov-14 17:30N 19°12' W 096°08'1 2.8
2017-Nov-14 17:00N 19°12' W 096°06'1 1.8
2017-Nov-14 16:30N 19°12' W 096°05'3 5.0
2017-Nov-14 16:00N 19°13' W 096°08'1 1.4
2017-Nov-14 15:30N 19°12' W 096°08'0 0.0
2017-Nov-14 14:55N 19°12' W 096°08'0 0.0
2017-Nov-14 14:25N 19°12' W 096°08'0 0.0
2017-Nov-14 13:58N 19°12' W 096°08'0 0.0
2017-Nov-14 13:28N 19°12' W 096°08'0 0.0
2017-Nov-14 12:55N 19°12' W 096°08'0 0.0
2017-Nov-14 12:28N 19°12' W 096°08'0 0.0
2017-Nov-14 11:43N 19°12' W 096°08'0 0.0
2017-Nov-14 11:25N 19°12' W 096°08'0 0.0
2017-Nov-14 10:58N 19°12' W 096°08'0 0.0
2017-Nov-14 10:28N 19°12' W 096°08'0 0.0
2017-Nov-14 09:58N 19°12' W 096°08'0 0.0
2017-Nov-14 09:28N 19°12' W 096°08'0 0.0
2017-Nov-14 08:58N 19°12' W 096°08'0 0.0
2017-Nov-14 08:25N 19°12' W 096°08'0 0.0
2017-Nov-14 07:58N 19°12' W 096°08'0 0.0
2017-Nov-14 07:28N 19°12' W 096°08'0 0.0
2017-Nov-14 06:58N 19°12' W 096°08'0 0.0
2017-Nov-14 06:25N 19°12' W 096°08'0 0.0
2017-Nov-14 05:55N 19°12' W 096°08'2 5.1
2017-Nov-14 05:30N 19°12' W 096°06'2 2.9
2017-Nov-14 04:57N 19°12' W 096°07'1 2.5
2017-Nov-14 04:30N 19°13' W 096°08'1 1.4
2017-Nov-14 03:53N 19°12' W 096°08'0 0.0
2017-Nov-14 03:29N 19°12' W 096°08'0 0.0
2017-Nov-14 02:54N 19°12' W 096°08'0 0.0
2017-Nov-14 02:30N 19°12' W 096°08'0 0.0
2017-Nov-14 01:57N 19°12' W 096°08'0 0.0
2017-Nov-14 01:30N 19°12' W 096°08'1 1.4
2017-Nov-14 00:57N 19°13' W 096°08'1 1.7
2017-Nov-14 00:30N 19°12' W 096°08'4 6.3
2017-Nov-13 23:55N 19°12' W 096°04'4 7.8
2017-Nov-13 23:27N 19°12' W 096°08'0 0.0
2017-Nov-13 22:57N 19°12' W 096°08'0 0.0
2017-Nov-13 01:59N 19°12' W 096°08'0 0.0
2017-Nov-13 01:29N 19°12' W 096°08'1 1.7
2017-Nov-13 00:59N 19°13' W 096°08'0 0.3
2017-Nov-13 00:30N 19°13' W 096°08'3 6.7
2017-Nov-12 23:59N 19°12' W 096°05'3 5.7
2017-Nov-12 23:29N 19°12' W 096°08'0 0.0
2017-Nov-12 22:59N 19°12' W 096°08'0 0.0
2017-Nov-12 22:26N 19°12' W 096°08'0 0.0
2017-Nov-12 21:56N 19°12' W 096°08'0 0.0
2017-Nov-12 21:23N 19°12' W 096°08'0 0.0
2017-Nov-12 20:56N 19°12' W 096°08'0 0.0
2017-Nov-12 20:29N 19°12' W 096°08'2 4.7
2017-Nov-12 20:00N 19°12' W 096°05'0 0.9
2017-Nov-12 19:30N 19°12' W 096°05'3 5.9
2017-Nov-12 19:00N 19°12' W 096°08'1 1.1
2017-Nov-12 18:30N 19°12' W 096°08'0 0.0
2017-Nov-12 18:00N 19°12' W 096°08'0 0.0
2017-Nov-12 17:30N 19°12' W 096°08'0 0.0
2017-Nov-12 17:00N 19°12' W 096°08'0 0.0
2017-Nov-12 16:30N 19°12' W 096°08'0 0.0
2017-Nov-12 16:00N 19°12' W 096°08'0 0.0
2017-Nov-12 15:30N 19°12' W 096°08'0 0.0
2017-Nov-12 15:00N 19°12' W 096°08'0 0.0
2017-Nov-12 14:30N 19°12' W 096°08'0 0.0
2017-Nov-12 14:00N 19°12' W 096°08'0 0.0
2017-Nov-12 13:30N 19°12' W 096°08'0 0.0
2017-Nov-12 13:00N 19°12' W 096°08'0 0.0
2017-Nov-12 12:30N 19°12' W 096°08'0 0.0
2017-Nov-12 12:00N 19°12' W 096°08'0 0.0
2017-Nov-12 11:27N 19°12' W 096°08'0 0.0
2017-Nov-12 11:00N 19°12' W 096°08'0 0.0
2017-Nov-12 10:30N 19°12' W 096°08'0 0.0
2017-Nov-12 10:00N 19°12' W 096°08'0 0.0
2017-Nov-12 09:30N 19°12' W 096°08'0 0.0
2017-Nov-12 09:00N 19°12' W 096°08'0 0.0
2017-Nov-12 08:30N 19°12' W 096°08'0 0.0
2017-Nov-12 08:00N 19°12' W 096°08'0 0.0
2017-Nov-12 07:27N 19°12' W 096°08'0 0.0
2017-Nov-12 07:00N 19°12' W 096°08'0 0.0
2017-Nov-12 06:30N 19°12' W 096°08'0 0.0
2017-Nov-12 06:00N 19°12' W 096°08'0 0.0
2017-Nov-12 05:30N 19°12' W 096°08'0 0.0
2017-Nov-12 05:00N 19°12' W 096°08'0 0.0
2017-Nov-12 04:27N 19°12' W 096°08'0 0.0
2017-Nov-12 04:00N 19°12' W 096°08'0 0.0
2017-Nov-12 03:30N 19°12' W 096°08'0 0.0
2017-Nov-12 03:00N 19°12' W 096°08'0 0.0
2017-Nov-12 02:30N 19°12' W 096°08'0 0.0
2017-Nov-12 01:57N 19°12' W 096°08'0 0.0
2017-Nov-12 01:30N 19°12' W 096°08'0 0.0
2017-Nov-12 00:57N 19°12' W 096°08'3 5.4
2017-Nov-12 00:30N 19°12' W 096°05'1 2.3
2017-Nov-12 00:00N 19°12' W 096°06'1 2.3
2017-Nov-11 23:23N 19°12' W 096°08'0 0.3
2017-Nov-11 22:57N 19°12' W 096°08'0 0.0
2017-Nov-11 22:27N 19°12' W 096°08'0 0.0
2017-Nov-11 19:27N 19°12' W 096°08'0 0.0
2017-Nov-11 18:57N 19°12' W 096°08'0 0.0
2017-Nov-11 18:30N 19°12' W 096°08'2 4.2
2017-Nov-11 17:58N 19°12' W 096°05'2 2.5
2017-Nov-11 17:05N 19°12' W 096°08'0 0.5
2017-Nov-11 16:47N 19°12' W 096°08'0 0.6
2017-Nov-11 16:21N 19°12' W 096°08'0 0.0
2017-Nov-11 16:00N 19°12' W 096°08'0 0.5
2017-Nov-11 15:25N 19°12' W 096°08'0 0.7
2017-Nov-11 14:58N 19°12' W 096°08'0 0.0
2017-Nov-11 14:28N 19°12' W 096°08'0 0.0
2017-Nov-11 13:58N 19°12' W 096°08'0 0.0
2017-Nov-11 13:28N 19°12' W 096°08'0 0.0
2017-Nov-11 12:55N 19°12' W 096°08'0 0.0
2017-Nov-11 12:28N 19°12' W 096°08'2 4.5
2017-Nov-11 11:59N 19°12' W 096°05'1 1.0
2017-Nov-11 11:28N 19°12' W 096°05'3 4.6
2017-Nov-11 10:53N 19°12' W 096°08'0 0.0
2017-Nov-11 10:20N 19°12' W 096°08'0 0.0
2017-Nov-11 09:56N 19°12' W 096°08'0 0.0
2017-Nov-11 09:29N 19°12' W 096°08'0 0.0
2017-Nov-11 08:59N 19°12' W 096°08'0 0.0
2017-Nov-11 08:29N 19°12' W 096°08'0 0.0
2017-Nov-11 07:59N 19°12' W 096°08'0 0.0
2017-Nov-11 07:29N 19°12' W 096°08'0 0.0
2017-Nov-11 06:59N 19°12' W 096°08'0 0.0
2017-Nov-11 06:29N 19°12' W 096°08'0 0.0
2017-Nov-11 05:59N 19°12' W 096°08'0 0.0
2017-Nov-11 05:29N 19°12' W 096°08'0 0.0
2017-Nov-11 04:59N 19°12' W 096°08'0 0.0
2017-Nov-11 04:29N 19°12' W 096°08'0 0.0
2017-Nov-11 03:59N 19°12' W 096°08'0 0.0
2017-Nov-11 03:29N 19°12' W 096°08'0 0.0
2017-Nov-11 02:56N 19°12' W 096°08'0 0.0
2017-Nov-11 02:29N 19°12' W 096°08'1 2.6
2017-Nov-11 02:00N 19°12' W 096°06'2 3.8
2017-Nov-11 01:30N 19°12' W 096°04'3 6.0
2017-Nov-11 00:59N 19°12' W 096°08'0 0.2
2017-Nov-11 00:27N 19°12' W 096°08'0 0.0
2017-Nov-11 00:00N 19°12' W 096°08'0 0.0
2017-Nov-10 23:27N 19°12' W 096°08'0 0.0
2017-Nov-10 22:57N 19°12' W 096°08'0 0.0
2017-Nov-10 22:27N 19°12' W 096°08'0 0.0
2017-Nov-10 21:57N 19°12' W 096°08'0 0.0
2017-Nov-10 21:27N 19°12' W 096°08'0 0.0
2017-Nov-10 20:57N 19°12' W 096°08'0 0.0
2017-Nov-10 20:30N 19°12' W 096°08'2 4.7
2017-Nov-10 20:00N 19°12' W 096°05'0 0.1
2017-Nov-10 19:30N 19°12' W 096°05'2 4.6
2017-Nov-10 18:59N 19°12' W 096°08'2 4.5
2017-Nov-10 18:30N 19°12' W 096°06'0 0.9
2017-Nov-10 17:57N 19°12' W 096°05'3 3.9
2017-Nov-10 17:17N 19°12' W 096°08'0 0.2
2017-Nov-10 16:50N 19°12' W 096°08'0 0.0
2017-Nov-10 16:02N 19°12' W 096°08'0 0.0
2017-Nov-10 15:50N 19°12' W 096°08'0 0.0
2017-Nov-10 15:26N 19°12' W 096°08'0 0.0
2017-Nov-10 14:50N 19°12' W 096°08'0 0.0
2017-Nov-10 14:29N 19°12' W 096°08'0 0.0
2017-Nov-10 13:59N 19°12' W 096°08'0 0.0
2017-Nov-10 13:29N 19°12' W 096°08'0 0.0
2017-Nov-10 12:59N 19°12' W 096°08'0 0.0
2017-Nov-10 12:29N 19°12' W 096°08'0 0.0
2017-Nov-10 11:56N 19°12' W 096°08'0 0.0
2017-Nov-10 11:29N 19°12' W 096°08'0 0.0
2017-Nov-10 10:59N 19°12' W 096°08'0 0.0
2017-Nov-10 10:23N 19°12' W 096°08'0 0.0
2017-Nov-10 09:59N 19°12' W 096°08'0 0.0
2017-Nov-10 09:26N 19°12' W 096°08'0 0.0
2017-Nov-10 08:56N 19°12' W 096°08'0 0.0
2017-Nov-10 08:29N 19°12' W 096°08'0 0.0
2017-Nov-10 07:59N 19°12' W 096°08'0 0.0
2017-Nov-10 07:26N 19°12' W 096°08'0 0.0
2017-Nov-10 06:59N 19°12' W 096°08'0 0.0
2017-Nov-10 06:29N 19°12' W 096°08'0 0.0
2017-Nov-10 05:56N 19°12' W 096°08'0 0.0
2017-Nov-10 05:29N 19°12' W 096°08'0 0.0
2017-Nov-10 04:50N 19°12' W 096°08'0 0.0
2017-Nov-10 04:29N 19°12' W 096°08'0 0.0
2017-Nov-10 03:59N 19°12' W 096°08'0 0.0
2017-Nov-10 03:29N 19°12' W 096°08'0 0.0
2017-Nov-10 02:59N 19°12' W 096°08'0 0.0
2017-Nov-10 02:29N 19°12' W 096°08'0 0.0
2017-Nov-10 01:50N 19°12' W 096°08'0 0.0
2017-Nov-10 01:26N 19°12' W 096°08'0 0.0
2017-Nov-10 00:59N 19°12' W 096°08'0 0.0
2017-Nov-10 00:29N 19°12' W 096°08'0 0.0
2017-Nov-09 23:59N 19°12' W 096°08'0 0.0
2017-Nov-09 23:29N 19°12' W 096°08'0 0.0
2017-Nov-09 22:56N 19°12' W 096°08'0 0.0
2017-Nov-09 22:29N 19°12' W 096°08'0 0.0
2017-Nov-09 21:59N 19°12' W 096°08'0 0.0
2017-Nov-09 21:29N 19°12' W 096°08'0 0.0
2017-Nov-09 20:59N 19°12' W 096°08'0 0.0
2017-Nov-09 20:29N 19°12' W 096°08'1 1.6
2017-Nov-09 19:59N 19°13' W 096°08'1 1.5
2017-Nov-09 19:30N 19°12' W 096°08'2 3.9
2017-Nov-09 18:53N 19°12' W 096°05'3 6.5
2017-Nov-09 18:29N 19°12' W 096°08'0 0.0
2017-Nov-09 17:59N 19°12' W 096°08'0 0.0
2017-Nov-09 17:29N 19°12' W 096°08'0 0.0
2017-Nov-09 16:59N 19°12' W 096°08'0 0.0
2017-Nov-09 16:29N 19°12' W 096°08'0 0.0
2017-Nov-09 15:59N 19°12' W 096°08'3 6.2
2017-Nov-09 15:29N 19°12' W 096°04'2 3.9
2017-Nov-09 15:00N 19°12' W 096°06'1 2.3
2017-Nov-09 14:25N 19°12' W 096°08'0 0.4
2017-Nov-09 13:59N 19°12' W 096°08'0 0.0
2017-Nov-09 13:29N 19°12' W 096°08'0 0.0
2017-Nov-09 12:59N 19°12' W 096°08'0 0.0
2017-Nov-09 12:26N 19°12' W 096°08'0 0.0
2017-Nov-09 11:59N 19°12' W 096°08'0 0.0
2017-Nov-09 11:29N 19°12' W 096°08'0 0.0
2017-Nov-09 10:59N 19°12' W 096°08'0 0.0
2017-Nov-09 10:29N 19°12' W 096°08'0 0.0
2017-Nov-09 09:59N 19°12' W 096°08'0 0.0
2017-Nov-09 09:29N 19°12' W 096°08'0 0.0
2017-Nov-09 08:59N 19°12' W 096°08'0 0.0
2017-Nov-09 08:26N 19°12' W 096°08'0 0.0
2017-Nov-09 07:59N 19°12' W 096°08'0 0.0
2017-Nov-09 07:29N 19°12' W 096°08'0 0.0
2017-Nov-09 06:59N 19°12' W 096°08'0 0.0
2017-Nov-09 06:29N 19°12' W 096°08'0 0.0
2017-Nov-09 05:53N 19°12' W 096°08'0 0.0
2017-Nov-09 05:29N 19°12' W 096°08'0 0.0
2017-Nov-09 04:59N 19°12' W 096°08'0 0.0
2017-Nov-09 04:29N 19°12' W 096°08'0 0.0
2017-Nov-09 03:59N 19°12' W 096°08'0 0.0
2017-Nov-09 03:29N 19°12' W 096°08'0 0.0
2017-Nov-09 02:59N 19°12' W 096°08'0 0.0
2017-Nov-09 02:29N 19°12' W 096°08'1 1.6
2017-Nov-09 01:57N 19°13' W 096°08'1 1.9
2017-Nov-09 01:30N 19°12' W 096°08'4 6.8
2017-Nov-09 00:58N 19°11' W 096°04'3 6.7
2017-Nov-09 00:30N 19°12' W 096°07'1 1.1
2017-Nov-09 00:00N 19°12' W 096°08'1 0.6
2017-Nov-08 22:51N 19°12' W 096°07'1 1.4
2017-Nov-08 22:14N 19°12' W 096°08'0 0.0
2017-Nov-08 21:56N 19°12' W 096°08'0 0.0
2017-Nov-08 21:26N 19°12' W 096°08'0 0.0
2017-Nov-08 20:50N 19°12' W 096°08'0 0.0
2017-Nov-08 20:26N 19°12' W 096°08'0 0.0
2017-Nov-08 17:38N 19°12' W 096°08'0 0.1
2017-Nov-08 17:26N 19°12' W 096°08'0 0.0
2017-Nov-08 16:56N 19°12' W 096°08'0 0.0
2017-Nov-08 16:29N 19°12' W 096°08'1 1.5
2017-Nov-08 16:00N 19°13' W 096°08'1 1.5
2017-Nov-08 15:30N 19°12' W 096°08'4 7.4
2017-Nov-08 15:00N 19°11' W 096°04'  

Dump ship's entire track history